createdAt,value
2018-07-07T00:01:35.031Z,1.50
2018-07-07T00:04:03.579Z,1.60
2018-07-07T00:06:32.160Z,1.67
2018-07-07T00:09:00.779Z,1.77
2018-07-07T00:11:29.344Z,1.50
2018-07-07T00:13:57.923Z,1.60
2018-07-07T00:16:26.476Z,1.60
2018-07-07T00:18:55.064Z,1.63
2018-07-07T00:21:23.635Z,1.33
2018-07-07T00:23:52.193Z,1.70
2018-07-07T00:26:20.779Z,1.80
2018-07-07T00:28:49.339Z,1.70
2018-07-07T00:31:17.934Z,2.10
2018-07-07T00:33:46.516Z,1.57
2018-07-07T00:36:15.203Z,1.70
2018-07-07T00:38:43.765Z,1.93
2018-07-07T00:41:12.379Z,1.77
2018-07-07T00:43:40.951Z,1.60
2018-07-07T00:46:09.532Z,1.70
2018-07-07T00:48:38.089Z,1.93
2018-07-07T00:51:06.708Z,1.67
2018-07-07T00:53:35.301Z,1.90
2018-07-07T00:56:03.867Z,1.50
2018-07-07T00:58:32.464Z,1.60
2018-07-07T01:01:00.689Z,1.63
2018-07-07T01:03:29.242Z,2.10
2018-07-07T01:05:57.795Z,2.00
2018-07-07T01:08:26.376Z,1.90
2018-07-07T01:10:54.976Z,1.83
2018-07-07T01:13:23.559Z,1.80
2018-07-07T01:15:52.116Z,1.40
2018-07-07T01:18:20.672Z,2.00
2018-07-07T01:20:49.240Z,1.60
2018-07-07T01:23:17.824Z,2.27
2018-07-07T01:25:46.906Z,1.13
2018-07-07T01:28:15.504Z,1.40
2018-07-07T01:30:44.079Z,1.77
2018-07-07T01:33:12.710Z,1.20
2018-07-07T01:35:41.263Z,1.37
2018-07-07T01:38:09.835Z,1.60
2018-07-07T01:40:38.431Z,1.70
2018-07-07T01:43:06.993Z,1.50
2018-07-07T01:45:35.569Z,2.20
2018-07-07T01:48:04.148Z,1.60
2018-07-07T01:50:32.703Z,1.10
2018-07-07T01:53:01.256Z,1.47
2018-07-07T01:55:29.804Z,1.40
2018-07-07T01:57:58.378Z,1.60
2018-07-07T02:00:27.448Z,1.67
2018-07-07T02:02:56.029Z,1.73
2018-07-07T02:05:24.628Z,1.60
2018-07-07T02:07:53.317Z,1.73
2018-07-07T02:10:22.014Z,1.23
2018-07-07T02:12:50.523Z,1.37
2018-07-07T02:15:19.095Z,1.90
2018-07-07T02:17:47.955Z,1.30
2018-07-07T02:20:16.176Z,1.60
2018-07-07T02:22:44.984Z,1.40
2018-07-07T02:25:13.598Z,1.53
2018-07-07T02:27:42.235Z,2.17
2018-07-07T02:30:10.797Z,1.70
2018-07-07T02:32:39.611Z,1.80
2018-07-07T02:35:08.176Z,1.60
2018-07-07T02:37:36.759Z,1.73
2018-07-07T02:40:05.316Z,1.57
2018-07-07T02:42:33.876Z,1.40
2018-07-07T02:45:02.472Z,1.27
2018-07-07T02:47:31.031Z,1.23
2018-07-07T02:49:59.630Z,1.40
2018-07-07T02:52:28.494Z,1.63
2018-07-07T02:54:57.088Z,1.20
2018-07-07T02:57:25.664Z,1.43
2018-07-07T02:59:54.263Z,1.40
2018-07-07T03:02:22.851Z,1.90
2018-07-07T03:04:51.416Z,1.80
2018-07-07T03:07:19.972Z,1.40
2018-07-07T03:09:48.528Z,1.87
2018-07-07T03:12:16.759Z,1.43
2018-07-07T03:14:45.327Z,1.43
2018-07-07T03:17:14.227Z,1.70
2018-07-07T03:19:43.941Z,1.37
2018-07-07T03:22:12.499Z,1.57
2018-07-07T03:24:41.065Z,2.03
2018-07-07T03:27:09.643Z,1.50
2018-07-07T03:29:38.437Z,1.47
2018-07-07T03:32:06.988Z,1.67
2018-07-07T03:34:35.569Z,1.67
2018-07-07T03:37:04.153Z,1.90
2018-07-07T03:39:32.732Z,1.50
2018-07-07T03:42:01.295Z,1.80
2018-07-07T03:44:29.920Z,1.70
2018-07-07T03:46:58.486Z,1.60
2018-07-07T03:49:27.165Z,1.40
2018-07-07T03:51:55.688Z,1.50
2018-07-07T03:54:24.247Z,1.60
2018-07-07T03:56:52.800Z,1.90
2018-07-07T03:59:21.364Z,1.80
2018-07-07T04:01:49.920Z,2.00
2018-07-07T04:04:18.542Z,2.47
2018-07-07T04:06:47.091Z,1.97
2018-07-07T04:09:15.657Z,1.70
2018-07-07T04:11:44.259Z,1.67
2018-07-07T04:14:12.833Z,1.57
2018-07-07T04:16:46.166Z,1.63
2018-07-07T04:19:14.715Z,1.80
2018-07-07T04:21:43.275Z,1.63
2018-07-07T04:24:11.836Z,2.43
2018-07-07T04:26:40.422Z,1.33
2018-07-07T04:29:09.012Z,1.77
2018-07-07T04:31:37.569Z,2.00
2018-07-07T04:34:06.385Z,1.30
2018-07-07T04:36:35.108Z,1.90
2018-07-07T04:39:04.895Z,1.80
2018-07-07T04:41:33.547Z,1.90
2018-07-07T04:44:02.687Z,1.73
2018-07-07T04:46:31.247Z,1.60
2018-07-07T04:48:59.802Z,1.90
2018-07-07T04:51:28.392Z,2.23
2018-07-07T04:53:57.008Z,1.57
2018-07-07T04:56:25.572Z,2.17
2018-07-07T04:58:54.139Z,1.93
2018-07-07T05:01:22.707Z,1.97
2018-07-07T05:03:51.276Z,1.93
2018-07-07T05:06:19.910Z,2.10
2018-07-07T05:08:48.470Z,1.40
2018-07-07T05:11:17.028Z,1.70
2018-07-07T05:13:46.539Z,2.20
2018-07-07T05:16:15.108Z,1.93
2018-07-07T05:18:43.689Z,1.53
2018-07-07T05:21:12.231Z,1.53
2018-07-07T05:23:40.822Z,1.60
2018-07-07T05:26:09.375Z,1.83
2018-07-07T05:28:37.989Z,1.53
2018-07-07T05:31:06.744Z,1.60
2018-07-07T05:33:37.524Z,1.37
2018-07-07T05:36:07.043Z,1.47
2018-07-07T05:38:36.384Z,1.20
2018-07-07T05:41:05.995Z,1.50
2018-07-07T05:43:34.547Z,1.87
2018-07-07T05:46:03.692Z,1.50
2018-07-07T05:48:32.269Z,1.60
2018-07-07T05:51:00.824Z,1.50
2018-07-07T05:53:30.533Z,1.73
2018-07-07T05:55:59.088Z,1.43
2018-07-07T05:58:27.641Z,1.50
2018-07-07T06:00:56.183Z,1.70
2018-07-07T06:03:24.836Z,1.73
2018-07-07T06:05:53.500Z,1.50
2018-07-07T06:08:22.104Z,1.17
2018-07-07T06:10:50.680Z,1.70
2018-07-07T06:13:19.251Z,1.20
2018-07-07T06:15:47.796Z,1.30
2018-07-07T06:18:16.439Z,1.23
2018-07-07T06:20:44.981Z,1.50
2018-07-07T06:23:13.539Z,2.17
2018-07-07T06:25:42.176Z,1.47
2018-07-07T06:28:10.736Z,1.77
2018-07-07T06:30:39.359Z,1.67
2018-07-07T06:33:07.928Z,1.57
2018-07-07T06:35:36.482Z,1.33
2018-07-07T06:38:05.329Z,1.30
2018-07-07T06:40:33.900Z,1.87
2018-07-07T06:43:02.485Z,1.70
2018-07-07T06:45:31.029Z,1.20
2018-07-07T06:47:59.583Z,1.30
2018-07-07T06:50:28.867Z,1.67
2018-07-07T06:52:57.407Z,1.87
2018-07-07T06:55:26.097Z,1.63
2018-07-07T06:57:54.647Z,1.50
2018-07-07T07:00:23.216Z,1.83
2018-07-07T07:02:51.808Z,1.10
2018-07-07T07:05:20.411Z,1.67
2018-07-07T07:07:49.003Z,1.57
2018-07-07T07:10:17.626Z,1.03
2018-07-07T07:12:46.192Z,1.70
2018-07-07T07:15:14.751Z,1.67
2018-07-07T07:17:43.363Z,1.40
2018-07-07T07:20:11.940Z,1.20
2018-07-07T07:22:40.520Z,1.50
2018-07-07T07:25:09.107Z,1.40
2018-07-07T07:27:37.655Z,1.87
2018-07-07T07:30:06.344Z,1.60
2018-07-07T07:32:35.008Z,1.63
2018-07-07T07:35:03.596Z,1.43
2018-07-07T07:37:32.144Z,1.23
2018-07-07T07:40:00.706Z,1.10
2018-07-07T07:42:29.527Z,1.93
2018-07-07T07:44:58.106Z,1.50
2018-07-07T07:47:27.583Z,1.40
2018-07-07T07:49:56.125Z,1.00
2018-07-07T07:52:24.671Z,1.30
2018-07-07T07:54:53.255Z,1.20
2018-07-07T07:57:21.851Z,0.90
2018-07-07T07:59:50.420Z,1.17
2018-07-07T08:02:18.971Z,1.07
2018-07-07T08:04:47.561Z,1.10
2018-07-07T08:07:16.105Z,1.53
2018-07-07T08:09:44.734Z,1.20
2018-07-07T08:12:13.297Z,1.00
2018-07-07T08:14:41.893Z,1.20
2018-07-07T08:17:10.468Z,1.60
2018-07-07T08:19:39.028Z,1.20
2018-07-07T08:22:07.679Z,1.17
2018-07-07T08:24:36.246Z,1.17
2018-07-07T08:27:05.649Z,1.60
2018-07-07T08:29:34.221Z,1.27
2018-07-07T08:32:02.793Z,1.30
2018-07-07T08:34:31.455Z,1.20
2018-07-07T08:36:59.996Z,1.43
2018-07-07T08:39:28.755Z,1.10
2018-07-07T08:41:57.402Z,1.30
2018-07-07T08:44:25.979Z,1.70
2018-07-07T08:46:56.296Z,1.20
2018-07-07T08:49:25.566Z,1.60
2018-07-07T08:51:54.246Z,1.07
2018-07-07T08:54:22.872Z,1.80
2018-07-07T08:56:51.698Z,1.70
2018-07-07T08:59:20.339Z,1.40
2018-07-07T09:01:48.892Z,1.37
2018-07-07T09:04:17.932Z,1.10
2018-07-07T09:06:46.481Z,1.10
2018-07-07T09:09:15.373Z,1.17
2018-07-07T09:11:44.026Z,2.10
2018-07-07T09:14:12.732Z,2.03
2018-07-07T09:16:41.320Z,1.33
2018-07-07T09:19:09.894Z,1.33
2018-07-07T09:21:38.464Z,1.57
2018-07-07T09:24:07.055Z,1.47
2018-07-07T09:26:35.603Z,1.40
2018-07-07T09:29:04.182Z,1.30
2018-07-07T09:31:32.736Z,1.47
2018-07-07T09:34:01.302Z,1.43
2018-07-07T09:36:30.304Z,1.40
2018-07-07T09:38:58.884Z,1.30
2018-07-07T09:41:27.469Z,1.60
2018-07-07T09:43:56.070Z,1.57
2018-07-07T09:46:24.634Z,1.70
2018-07-07T09:48:53.223Z,1.77
2018-07-07T09:51:21.807Z,1.83
2018-07-07T09:53:50.396Z,1.70
2018-07-07T09:56:19.027Z,1.23
2018-07-07T09:58:47.611Z,1.60
2018-07-07T10:01:16.236Z,1.43
2018-07-07T10:03:44.807Z,1.60
2018-07-07T10:06:13.367Z,1.67
2018-07-07T10:08:41.962Z,1.37
2018-07-07T10:11:10.561Z,1.20
2018-07-07T10:13:39.161Z,1.20
2018-07-07T10:16:07.743Z,1.60
2018-07-07T10:18:36.368Z,1.47
2018-07-07T10:21:04.963Z,1.30
2018-07-07T10:23:33.580Z,1.13
2018-07-07T10:26:02.164Z,1.50
2018-07-07T10:28:42.005Z,1.50
2018-07-07T10:31:20.845Z,1.70
2018-07-07T10:33:49.512Z,1.03
2018-07-07T10:36:19.246Z,1.17
2018-07-07T10:38:48.467Z,1.30
2018-07-07T10:41:20.515Z,1.30
2018-07-07T10:43:52.711Z,1.20
2018-07-07T10:46:25.053Z,1.40
2018-07-07T10:49:16.043Z,1.40
2018-07-07T10:51:46.457Z,1.33
2018-07-07T10:54:27.870Z,1.20
2018-07-07T11:02:45.988Z,1.20
2018-07-07T11:05:15.307Z,1.50
2018-07-07T11:07:43.946Z,1.73
2018-07-07T11:10:12.535Z,1.30
2018-07-07T11:12:41.122Z,1.70
2018-07-07T11:15:09.795Z,1.57
2018-07-07T11:17:41.711Z,1.63
2018-07-07T11:20:20.197Z,1.20
2018-07-07T11:22:48.796Z,1.90
2018-07-07T11:25:17.718Z,1.43
2018-07-07T11:27:46.313Z,1.70
2018-07-07T11:30:14.952Z,1.50
2018-07-07T11:32:47.544Z,1.60
2018-07-07T11:35:30.889Z,1.50
2018-07-07T11:38:00.073Z,1.43
2018-07-07T11:40:40.643Z,1.93
2018-07-07T11:43:10.276Z,1.43
2018-07-07T11:45:40.135Z,1.50
2018-07-07T11:48:08.786Z,1.80
2018-07-07T11:50:37.441Z,1.73
2018-07-07T11:53:06.043Z,2.13
2018-07-07T11:55:34.646Z,1.40
2018-07-07T11:58:03.252Z,1.60
2018-07-07T12:00:31.925Z,1.57
2018-07-07T12:03:00.517Z,1.70
2018-07-07T12:05:29.364Z,1.40
2018-07-07T12:08:13.314Z,1.50
2018-07-07T12:10:26.592Z,1.60
2018-07-07T12:12:55.195Z,1.30
2018-07-07T12:15:23.849Z,1.40
2018-07-07T12:17:52.723Z,1.50
2018-07-07T12:20:21.356Z,2.43
2018-07-07T12:22:49.939Z,1.63
2018-07-07T12:25:18.927Z,1.80
2018-07-07T12:27:47.565Z,1.30
2018-07-07T12:30:16.861Z,1.00
2018-07-07T12:32:47.377Z,1.13
2018-07-07T12:35:30.545Z,1.50
2018-07-07T12:38:04.304Z,1.47
2018-07-07T12:40:37.397Z,1.57
2018-07-07T12:43:15.292Z,1.20
2018-07-07T12:45:45.420Z,1.03
2018-07-07T12:48:14.008Z,1.37
2018-07-07T12:50:42.627Z,1.13
2018-07-07T12:53:18.113Z,1.23
2018-07-07T12:55:52.348Z,0.97
2018-07-07T12:58:28.445Z,1.20
2018-07-07T13:03:46.625Z,1.40
2018-07-07T13:06:16.985Z,1.30
2018-07-07T13:08:45.611Z,1.73
2018-07-07T13:11:15.157Z,2.13
2018-07-07T13:13:44.211Z,1.40
2018-07-07T13:16:16.398Z,1.60
2018-07-07T13:18:45.801Z,1.33
2018-07-07T13:24:06.851Z,1.10
2018-07-07T13:30:05.277Z,1.00
2018-07-07T13:32:37.087Z,0.90
2018-07-07T13:35:14.197Z,1.00
2018-07-07T13:37:48.484Z,1.07
2018-07-07T13:40:18.333Z,0.97
2018-07-07T13:42:48.669Z,1.13
2018-07-07T13:45:21.890Z,0.90
2018-07-07T13:47:52.248Z,1.00
2018-07-07T13:50:25.744Z,1.03
2018-07-07T13:56:02.640Z,1.03
2018-07-07T13:58:34.577Z,1.60
2018-07-07T14:01:11.380Z,0.80
2018-07-07T14:03:40.005Z,0.93
2018-07-07T14:06:25.294Z,1.20
2018-07-07T14:08:57.815Z,1.07
2018-07-07T14:11:29.966Z,1.23
2018-07-07T14:14:01.221Z,1.00
2018-07-07T14:16:49.757Z,0.90
2018-07-07T14:19:23.988Z,1.27
2018-07-07T14:21:52.767Z,1.10
2018-07-07T14:24:23.800Z,0.90
2018-07-07T14:29:51.494Z,0.83
2018-07-07T14:32:33.905Z,0.83
2018-07-07T14:35:07.106Z,1.10
2018-07-07T14:40:26.281Z,1.00
2018-07-07T14:43:19.329Z,0.93
2018-07-07T14:46:01.211Z,1.23
2018-07-07T14:51:34.929Z,0.60
2018-07-07T14:54:15.106Z,0.83
2018-07-07T14:59:43.109Z,1.13
2018-07-07T15:05:16.056Z,1.00
2018-07-07T15:07:59.104Z,1.10
2018-07-07T15:10:35.534Z,1.33
2018-07-07T15:13:07.644Z,1.07
2018-07-07T15:15:41.025Z,1.00
2018-07-07T15:18:10.307Z,1.00
2018-07-07T15:20:38.879Z,1.03
2018-07-07T15:23:07.488Z,1.20
2018-07-07T15:25:39.001Z,1.30
2018-07-07T15:28:13.296Z,1.20
2018-07-07T15:30:42.983Z,0.97
2018-07-07T15:33:11.592Z,1.17
2018-07-07T15:38:16.549Z,1.00
2018-07-07T15:40:50.650Z,1.20
2018-07-07T15:43:19.258Z,1.30
2018-07-07T15:48:27.327Z,1.17
2018-07-07T15:50:55.907Z,1.10
2018-07-07T15:53:24.484Z,1.10
2018-07-07T15:55:53.091Z,0.97
2018-07-07T15:58:21.727Z,0.80
2018-07-07T16:00:50.322Z,0.80
2018-07-07T16:03:18.908Z,1.00
2018-07-07T16:05:47.491Z,0.70
2018-07-07T16:08:16.124Z,1.10
2018-07-07T16:10:44.714Z,0.90
2018-07-07T16:13:13.313Z,1.10
2018-07-07T16:15:42.072Z,1.30
2018-07-07T16:18:10.763Z,1.23
2018-07-07T16:20:39.408Z,1.30
2018-07-07T16:23:08.017Z,1.17
2018-07-07T16:25:42.479Z,1.30
2018-07-07T16:28:26.671Z,1.40
2018-07-07T16:30:56.230Z,1.23
2018-07-07T16:33:24.939Z,1.30
2018-07-07T16:35:55.537Z,1.27
2018-07-07T16:38:24.100Z,1.50
2018-07-07T16:40:52.681Z,1.47
2018-07-07T16:43:21.330Z,1.37
2018-07-07T16:45:49.909Z,1.37
2018-07-07T16:48:18.470Z,1.50
2018-07-07T16:50:47.027Z,1.70
2018-07-07T16:53:15.604Z,1.40
2018-07-07T16:55:53.341Z,1.17
2018-07-07T16:58:22.392Z,1.40
2018-07-07T17:00:50.963Z,1.57
2018-07-07T17:03:26.548Z,1.60
2018-07-07T17:05:57.199Z,1.30
2018-07-07T17:08:28.855Z,1.20
2018-07-07T17:10:57.480Z,1.20
2018-07-07T17:13:26.028Z,1.40
2018-07-07T17:15:55.656Z,1.40
2018-07-07T17:18:25.060Z,1.10
2018-07-07T17:23:58.731Z,1.40
2018-07-07T17:26:40.943Z,1.40
2018-07-07T17:29:25.544Z,1.37
2018-07-07T17:37:31.750Z,1.70
2018-07-07T17:40:19.555Z,1.20
2018-07-07T17:42:54.015Z,1.40
2018-07-07T17:45:30.089Z,1.70
2018-07-07T17:48:03.997Z,1.20
2018-07-07T17:50:34.540Z,1.40
2018-07-07T17:53:23.620Z,1.40
2018-07-07T17:59:12.093Z,1.43
2018-07-07T18:02:18.006Z,1.20
2018-07-07T18:07:45.371Z,1.10
2018-07-07T18:10:14.035Z,2.20
2018-07-07T18:12:42.603Z,1.30
2018-07-07T18:15:11.207Z,1.60
2018-07-07T18:17:39.808Z,1.70
2018-07-07T18:20:08.449Z,1.90
2018-07-07T18:22:37.028Z,1.37
2018-07-07T18:25:05.809Z,1.40
2018-07-07T18:27:34.513Z,1.40
2018-07-07T18:30:03.179Z,1.50
2018-07-07T18:32:31.744Z,1.40
2018-07-07T18:35:00.327Z,1.50
2018-07-07T18:37:28.907Z,1.57
2018-07-07T18:39:57.491Z,1.60
2018-07-07T18:42:26.055Z,1.47
2018-07-07T18:44:54.655Z,2.13
2018-07-07T18:47:23.256Z,1.50
2018-07-07T18:49:51.850Z,1.80
2018-07-07T18:52:20.430Z,1.80
2018-07-07T18:54:49.000Z,1.57
2018-07-07T18:57:17.553Z,1.30
2018-07-07T18:59:46.208Z,1.50
2018-07-07T19:02:14.792Z,1.83
2018-07-07T19:04:43.386Z,1.60
2018-07-07T19:07:11.960Z,1.30
2018-07-07T19:09:40.524Z,1.60
2018-07-07T19:12:09.093Z,1.50
2018-07-07T19:14:37.675Z,1.40
2018-07-07T19:17:06.231Z,1.30
2018-07-07T19:19:34.797Z,1.50
2018-07-07T19:22:08.645Z,1.40
2018-07-07T19:24:42.520Z,1.40
2018-07-07T19:27:11.112Z,1.60
2018-07-07T19:29:39.433Z,1.20
2018-07-07T19:32:13.351Z,1.20
2018-07-07T19:34:47.312Z,1.43
2018-07-07T19:37:17.645Z,1.60
2018-07-07T19:39:46.821Z,1.67
2018-07-07T19:42:15.575Z,1.57
2018-07-07T19:44:44.258Z,1.30
2018-07-07T19:47:12.924Z,1.30
2018-07-07T19:49:41.583Z,1.30
2018-07-07T19:52:10.344Z,1.30
2018-07-07T19:54:38.969Z,1.50
2018-07-07T19:57:07.579Z,1.20
2018-07-07T19:59:36.344Z,1.20
2018-07-07T20:02:04.974Z,1.70
2018-07-07T20:04:33.964Z,1.70
2018-07-07T20:07:02.546Z,1.30
2018-07-07T20:09:31.162Z,1.43
2018-07-07T20:11:59.716Z,1.53
2018-07-07T20:14:28.326Z,1.40
2018-07-07T20:17:10.803Z,1.60
2018-07-07T20:20:57.935Z,1.40
2018-07-07T20:23:27.489Z,1.47
2018-07-07T20:26:01.758Z,1.30
2018-07-07T20:28:35.866Z,1.80
2018-07-07T20:31:04.443Z,2.00
2018-07-07T20:33:33.002Z,1.70
2018-07-07T20:36:01.612Z,1.53
2018-07-07T20:38:30.176Z,1.30
2018-07-07T20:40:58.776Z,1.60
2018-07-07T20:43:27.355Z,1.40
2018-07-07T20:45:55.936Z,1.40
2018-07-07T20:48:25.463Z,1.77
2018-07-07T20:50:54.052Z,1.70
2018-07-07T20:53:22.650Z,1.50
2018-07-07T20:55:51.356Z,1.60
2018-07-07T20:58:19.964Z,1.80
2018-07-07T21:00:48.519Z,1.83
2018-07-07T21:03:17.170Z,1.27
2018-07-07T21:05:45.770Z,1.60
2018-07-07T21:08:14.387Z,1.70
2018-07-07T21:10:43.065Z,1.80
2018-07-07T21:13:11.631Z,1.60
2018-07-07T21:15:40.407Z,1.17
2018-07-07T21:18:09.845Z,1.43
2018-07-07T21:20:38.419Z,1.60
2018-07-07T21:23:06.994Z,1.93
2018-07-07T21:25:35.595Z,2.07
2018-07-07T21:28:05.237Z,1.97
2018-07-07T21:30:33.847Z,1.97
2018-07-07T21:33:02.450Z,2.07
2018-07-07T21:35:31.037Z,1.50
2018-07-07T21:37:59.636Z,1.80
2018-07-07T21:40:28.212Z,1.60
2018-07-07T21:42:56.454Z,1.70
2018-07-07T21:45:25.028Z,1.87
2018-07-07T21:47:53.585Z,1.50
2018-07-07T21:50:22.216Z,1.37
2018-07-07T21:52:50.783Z,1.57
2018-07-07T21:55:19.407Z,1.30
2018-07-07T21:57:53.279Z,1.47
2018-07-07T22:00:27.139Z,1.77
2018-07-07T22:03:01.232Z,1.83
2018-07-07T22:05:31.847Z,1.30
2018-07-07T22:08:05.075Z,1.53
2018-07-07T22:10:33.650Z,1.70
2018-07-07T22:13:02.212Z,2.23
2018-07-07T22:15:30.792Z,1.70
2018-07-07T22:17:59.367Z,1.97
2018-07-07T22:20:34.124Z,1.67
2018-07-07T22:23:02.678Z,1.17
2018-07-07T22:25:31.253Z,1.50
2018-07-07T22:27:59.819Z,1.57
2018-07-07T22:30:28.581Z,1.87
2018-07-07T22:33:02.496Z,1.83
2018-07-07T22:35:36.342Z,1.80
2018-07-07T22:38:09.123Z,1.90
2018-07-07T22:40:37.713Z,2.50
2018-07-07T22:43:06.370Z,2.20
2018-07-07T22:45:34.939Z,1.97
2018-07-07T22:48:03.548Z,2.00
2018-07-07T22:50:32.143Z,2.13
2018-07-07T22:53:00.716Z,2.10
2018-07-07T22:55:29.272Z,1.83
2018-07-07T22:57:57.871Z,2.30
2018-07-07T23:00:32.440Z,2.00
2018-07-07T23:03:01.313Z,1.97
2018-07-07T23:05:29.919Z,2.40
2018-07-07T23:07:58.512Z,2.00
2018-07-07T23:10:27.105Z,2.00
2018-07-07T23:12:55.655Z,2.30
2018-07-07T23:15:24.369Z,2.30
2018-07-07T23:17:52.922Z,2.50
2018-07-07T23:20:21.508Z,2.47
2018-07-07T23:22:53.147Z,2.27
2018-07-07T23:25:21.757Z,2.10
2018-07-07T23:27:51.189Z,2.13
2018-07-07T23:30:20.428Z,2.73
2018-07-07T23:32:49.548Z,2.33
2018-07-07T23:35:18.172Z,2.47
2018-07-07T23:37:46.788Z,2.57
2018-07-07T23:40:15.376Z,2.77
2018-07-07T23:42:43.960Z,2.40
2018-07-07T23:45:12.669Z,2.40
2018-07-07T23:47:41.496Z,2.33
2018-07-07T23:50:11.884Z,2.63
2018-07-07T23:52:40.476Z,2.73
2018-07-07T23:55:09.052Z,2.40
2018-07-07T23:57:37.627Z,2.43
